Flugplatz Uetersen/Heist

Für EDHE sind keine METAR/TAF Berichte vorhanden.
Es werden die Flugwettermeldungen vom Flugplatz Hamburg-Finkenwerder in 15 km Entfernung angezeigt.

Bericht für EDHI

vom 25.10. um 17:20 UTC

Wind 8 kt aus 220°

Sichtweite 10 km oder mehr

aufgebrochene Bewölkung in 2100 ft

Temperatur 11.0°C

Taupunkt 8.0°C

Luftfeuchtigkeit 82%

Luftdruck 1016 hPa

EDHI 251720Z 22008KT 180V240 9999 BKN021 11/08 Q1016
Keine Prognose (TAF) verfügbar.
Impressum